Time;durP1;ratioP1;P1;durP2;ratioP2;P2;SDS_P1;SDS_P2;PMS_P1;PMS_P2;Temp;Humidity;BMP_temperature;BMP_pressure;BME280_temperature;BME280_humidity;BME280_pressure;Samples;Min_cycle;Max_cycle;Signal;HPM_P1;HPM_P2
2023/09/20 00:01:22;;;;;;;1.63;1.17;;;;;;;;;;10073658;28;20443;-72
2023/09/20 00:06:16;;;;;;;2.97;1.50;;;;;;;;;;10073255;28;20046;-72
2023/09/20 00:11:08;;;;;;;4.45;1.60;;;;;;;;;;10075460;28;20136;-71
2023/09/20 00:16:01;;;;;;;2.00;1.52;;;;;;;;;;10070727;28;20452;-72
2023/09/20 00:20:53;;;;;;;2.85;1.48;;;;;;;;;;10071037;28;20060;-72
2023/09/20 00:25:45;;;;;;;1.95;1.65;;;;;;;;;;10070900;28;20046;-72
2023/09/20 00:30:37;;;;;;;3.22;1.38;;;;;;;;;;10076333;28;20049;-72
2023/09/20 00:35:29;;;;;;;2.50;1.60;;;;;;;;;;10069125;28;20052;-72
2023/09/20 00:40:21;;;;;;;5.63;1.65;;;;;;;;;;10053639;28;20533;-72
2023/09/20 00:45:13;;;;;;;2.55;1.60;;;;;;;;;;10070443;28;20488;-72
2023/09/20 00:50:10;;;;;;;4.25;1.88;;;;;;;;;;10069885;28;20041;-71
2023/09/20 00:55:04;;;;;;;2.88;1.52;;;;;;;;;;10074838;28;20053;-72
2023/09/20 00:59:56;;;;;;;1.77;1.33;;;;;;;;;;10050904;28;20468;-71
2023/09/20 01:04:49;;;;;;;1.55;1.27;;;;;;;;;;10072226;28;20114;-73
2023/09/20 01:09:41;;;;;;;5.00;1.83;;;;;;;;;;10052927;28;20416;-72
2023/09/20 01:14:33;;;;;;;5.78;1.92;;;;;;;;;;10052665;28;20375;-72
2023/09/20 01:19:25;;;;;;;4.68;1.65;;;;;;;;;;10051092;28;20103;-72
2023/09/20 01:24:19;;;;;;;4.53;2.20;;;;;;;;;;10069246;28;20168;-72
2023/09/20 01:29:11;;;;;;;3.47;1.90;;;;;;;;;;10053155;28;20928;-71
2023/09/20 01:34:04;;;;;;;5.05;1.80;;;;;;;;;;10069264;28;20045;-71
2023/09/20 01:38:56;;;;;;;2.58;1.33;;;;;;;;;;10069946;28;20064;-72
2023/09/20 01:43:48;;;;;;;3.35;1.20;;;;;;;;;;10050184;28;20049;-72
2023/09/20 01:48:40;;;;;;;1.73;1.48;;;;;;;;;;10068005;28;20042;-71
2023/09/20 01:53:33;;;;;;;4.28;1.60;;;;;;;;;;10049377;28;20122;-72
2023/09/20 01:58:26;;;;;;;1.10;1.10;;;;;;;;;;10067246;28;20064;-72
2023/09/20 02:03:18;;;;;;;3.65;1.58;;;;;;;;;;10048750;28;20042;-72
2023/09/20 02:08:11;;;;;;;3.40;1.20;;;;;;;;;;10048933;28;20073;-71
2023/09/20 02:13:03;;;;;;;1.90;1.55;;;;;;;;;;10053255;28;20045;-72
2023/09/20 02:17:55;;;;;;;0.90;0.90;;;;;;;;;;10065448;28;20522;-72
2023/09/20 02:22:48;;;;;;;1.50;1.40;;;;;;;;;;10052071;28;20041;-72
2023/09/20 02:27:43;;;;;;;1.55;1.10;;;;;;;;;;10067381;28;20459;-71
2023/09/20 02:32:35;;;;;;;5.10;1.30;;;;;;;;;;10066183;28;20044;-72
2023/09/20 02:37:27;;;;;;;5.13;2.20;;;;;;;;;;10052938;28;20146;-71
2023/09/20 02:42:22;;;;;;;1.80;1.10;;;;;;;;;;10048857;28;20049;-71
2023/09/20 02:47:14;;;;;;;2.33;1.98;;;;;;;;;;10048382;28;20556;-71
2023/09/20 02:52:07;;;;;;;1.08;1.00;;;;;;;;;;10070344;28;20048;-72
2023/09/20 02:56:59;;;;;;;2.05;1.10;;;;;;;;;;10064764;28;20116;-72
2023/09/20 03:01:50;;;;;;;1.92;1.40;;;;;;;;;;10049553;28;20042;-72
2023/09/20 03:06:44;;;;;;;1.42;1.13;;;;;;;;;;10064420;28;20041;-72
2023/09/20 03:11:37;;;;;;;1.35;1.20;;;;;;;;;;10069105;28;20794;-72
2023/09/20 03:16:29;;;;;;;8.60;1.27;;;;;;;;;;10063844;28;20048;-72
2023/09/20 03:21:23;;;;;;;2.42;1.10;;;;;;;;;;10063309;28;20132;-72
2023/09/20 03:26:16;;;;;;;0.93;0.93;;;;;;;;;;10053919;28;20420;-72
2023/09/20 03:31:11;;;;;;;1.65;0.98;;;;;;;;;;10070881;28;20084;-71
2023/09/20 03:36:15;;;;;;;1.30;1.15;;;;;;;;;;10055551;28;20045;-71
2023/09/20 03:41:12;;;;;;;1.80;1.42;;;;;;;;;;10055825;28;20364;-72
2023/09/20 03:46:04;;;;;;;1.35;1.10;;;;;;;;;;10054480;28;20084;-73
2023/09/20 03:50:56;;;;;;;1.08;0.90;;;;;;;;;;10058533;28;20071;-74
2023/09/20 03:55:49;;;;;;;3.13;1.60;;;;;;;;;;10072306;28;20037;-71
2023/09/20 04:00:44;;;;;;;2.05;1.40;;;;;;;;;;10056240;28;20099;-71
2023/09/20 04:05:38;;;;;;;1.02;0.98;;;;;;;;;;10067182;28;20048;-73
2023/09/20 04:10:37;;;;;;;1.52;1.15;;;;;;;;;;10057864;28;20068;-73
2023/09/20 04:15:30;;;;;;;1.42;1.00;;;;;;;;;;10072307;28;20103;-74
2023/09/20 04:20:22;;;;;;;2.05;1.00;;;;;;;;;;10053581;28;20497;-71
2023/09/20 04:25:14;;;;;;;2.05;1.23;;;;;;;;;;10052258;28;20046;-70
2023/09/20 04:30:08;;;;;;;1.88;1.10;;;;;;;;;;10060540;28;20379;-71
2023/09/20 04:35:02;;;;;;;3.08;1.33;;;;;;;;;;10052346;28;20037;-73
2023/09/20 04:39:55;;;;;;;2.25;1.08;;;;;;;;;;10052660;28;20124;-72
2023/09/20 04:44:49;;;;;;;2.22;1.50;;;;;;;;;;10055667;28;20487;-71
2023/09/20 04:49:42;;;;;;;4.40;1.70;;;;;;;;;;10084357;28;20061;-72
2023/09/20 04:54:33;;;;;;;5.40;2.30;;;;;;;;;;10069453;28;20041;-73
2023/09/20 04:59:26;;;;;;;2.58;1.40;;;;;;;;;;10073486;28;20045;-72
2023/09/20 05:04:19;;;;;;;2.20;1.70;;;;;;;;;;10104534;28;20455;-72
2023/09/20 05:09:12;;;;;;;1.73;1.52;;;;;;;;;;10058544;28;20431;-72
2023/09/20 05:14:07;;;;;;;2.45;1.55;;;;;;;;;;10070144;28;20467;-72
2023/09/20 05:19:01;;;;;;;1.70;1.15;;;;;;;;;;10083297;28;20049;-70
2023/09/20 05:23:54;;;;;;;1.90;1.40;;;;;;;;;;10064665;28;20043;-72
2023/09/20 05:28:48;;;;;;;2.35;1.10;;;;;;;;;;10053696;28;20068;-69
2023/09/20 05:33:40;;;;;;;1.85;1.10;;;;;;;;;;10069999;28;20040;-68
2023/09/20 05:38:32;;;;;;;2.35;1.35;;;;;;;;;;10074484;28;20443;-68
2023/09/20 05:43:24;;;;;;;4.68;1.67;;;;;;;;;;10070101;28;20053;-69
2023/09/20 05:48:16;;;;;;;2.10;1.42;;;;;;;;;;10067346;28;20083;-68
2023/09/20 05:53:11;;;;;;;3.42;1.27;;;;;;;;;;10067136;28;20049;-69
2023/09/20 05:58:04;;;;;;;2.72;1.60;;;;;;;;;;10072753;28;20081;-69
2023/09/20 06:02:59;;;;;;;1.75;1.52;;;;;;;;;;10065659;28;20091;-69
2023/09/20 06:07:55;;;;;;;3.35;1.75;;;;;;;;;;10066153;28;20041;-69
2023/09/20 06:12:47;;;;;;;1.95;1.42;;;;;;;;;;10064059;28;20037;-69
2023/09/20 06:17:39;;;;;;;2.22;1.70;;;;;;;;;;10047342;28;20076;-69
2023/09/20 06:22:31;;;;;;;3.15;1.30;;;;;;;;;;10061861;28;20084;-69
2023/09/20 06:27:23;;;;;;;2.22;1.85;;;;;;;;;;10065746;28;20033;-69
2023/09/20 06:32:15;;;;;;;4.65;1.75;;;;;;;;;;10064296;28;20431;-69
2023/09/20 06:37:09;;;;;;;5.65;3.10;;;;;;;;;;10064223;28;20040;-69
2023/09/20 06:42:01;;;;;;;12.85;4.75;;;;;;;;;;10062477;28;20163;-70
2023/09/20 06:46:53;;;;;;;11.85;5.00;;;;;;;;;;10064099;28;20057;-69
2023/09/20 06:51:45;;;;;;;12.50;7.10;;;;;;;;;;10063518;28;20562;-69
2023/09/20 06:56:37;;;;;;;8.50;4.72;;;;;;;;;;10063687;28;20029;-70
2023/09/20 07:01:29;;;;;;;13.00;5.10;;;;;;;;;;10065458;28;20437;-70
2023/09/20 07:06:21;;;;;;;10.45;4.20;;;;;;;;;;10064424;28;20439;-70
2023/09/20 07:11:16;;;;;;;12.65;4.60;;;;;;;;;;10064189;28;20076;-68
2023/09/20 07:16:10;;;;;;;9.70;3.67;;;;;;;;;;10062903;28;20065;-70
2023/09/20 07:21:02;;;;;;;7.13;3.80;;;;;;;;;;10063525;28;20067;-69
2023/09/20 07:25:55;;;;;;;8.32;4.30;;;;;;;;;;10063334;28;20111;-69
2023/09/20 07:30:47;;;;;;;6.22;2.85;;;;;;;;;;10067940;28;20091;-69
2023/09/20 07:35:47;;;;;;;6.60;3.10;;;;;;;;;;10063515;28;20048;-70
2023/09/20 07:40:40;;;;;;;10.30;5.15;;;;;;;;;;10064019;28;20060;-70
2023/09/20 07:45:39;;;;;;;10.40;3.70;;;;;;;;;;10065076;28;20115;-69
2023/09/20 07:50:31;;;;;;;9.50;3.67;;;;;;;;;;10062888;28;20080;-68
2023/09/20 07:55:23;;;;;;;7.68;4.35;;;;;;;;;;10063295;28;20475;-68
2023/09/20 08:00:15;;;;;;;5.25;3.10;;;;;;;;;;10063811;28;20092;-67
2023/09/20 08:05:11;;;;;;;5.85;2.97;;;;;;;;;;10084386;28;20052;-68
2023/09/20 08:10:03;;;;;;;7.03;3.25;;;;;;;;;;10074241;28;20355;-68
2023/09/20 08:14:57;;;;;;;12.75;3.63;;;;;;;;;;10068831;28;20037;-66
2023/09/20 08:19:49;;;;;;;11.75;5.95;;;;;;;;;;10069803;28;20045;-68
2023/09/20 09:00:59;;;;;;;17.17;8.05;;;;;;;;;;10052646;28;20450;-68
2023/09/20 09:05:53;;;;;;;21.55;9.35;;;;;;;;;;10046575;28;20313;-68
2023/09/20 09:10:47;;;;;;;17.25;9.65;;;;;;;;;;10063811;28;20038;-68
2023/09/20 09:15:40;;;;;;;16.88;10.90;;;;;;;;;;10061189;28;20053;-67
2023/09/20 09:20:32;;;;;;;20.85;11.13;;;;;;;;;;10067341;28;20061;-67
2023/09/20 09:25:29;;;;;;;17.98;10.77;;;;;;;;;;10068815;28;20041;-68
2023/09/20 09:30:22;;;;;;;14.90;7.97;;;;;;;;;;10070706;28;20128;-67
2023/09/20 09:35:18;;;;;;;24.55;11.25;;;;;;;;;;10065972;28;20135;-67
2023/09/20 09:40:22;;;;;;;24.00;9.93;;;;;;;;;;10065199;28;20049;-66
2023/09/20 09:45:30;;;;;;;14.10;8.20;;;;;;;;;;10066621;28;20425;-69
2023/09/20 09:50:22;;;;;;;13.93;8.20;;;;;;;;;;10065378;28;20098;-68
2023/09/20 09:55:15;;;;;;;13.32;8.10;;;;;;;;;;10049630;28;20052;-69
2023/09/20 10:00:10;;;;;;;15.25;7.90;;;;;;;;;;10065686;28;20140;-69
2023/09/20 10:05:03;;;;;;;16.23;8.15;;;;;;;;;;10066482;28;20120;-69
2023/09/20 10:10:08;;;;;;;16.05;8.88;;;;;;;;;;10065358;28;20080;-68
2023/09/20 10:15:02;;;;;;;24.27;9.88;;;;;;;;;;10065003;28;20057;-68
2023/09/20 10:19:56;;;;;;;16.10;9.68;;;;;;;;;;10069103;28;20506;-66
2023/09/20 10:25:00;;;;;;;22.75;10.85;;;;;;;;;;10047148;28;20064;-71
2023/09/20 10:30:01;;;;;;;14.40;8.30;;;;;;;;;;10066311;28;20049;-67
2023/09/20 10:35:19;;;;;;;21.15;10.18;;;;;;;;;;10065436;28;20063;-67
2023/09/20 10:40:12;;;;;;;22.35;10.68;;;;;;;;;;10064357;28;20065;-68
2023/09/20 10:45:07;;;;;;;21.05;11.13;;;;;;;;;;10063819;28;20064;-68
2023/09/20 10:49:59;;;;;;;27.92;13.07;;;;;;;;;;10065939;28;20064;-67
2023/09/20 10:55:22;;;;;;;25.65;12.75;;;;;;;;;;10063967;28;20041;-69
2023/09/20 11:00:22;;;;;;;23.92;13.45;;;;;;;;;;10063537;28;20167;-67
2023/09/20 11:05:16;;;;;;;22.38;11.15;;;;;;;;;;10063564;28;20049;-67
2023/09/20 11:10:13;;;;;;;17.10;10.10;;;;;;;;;;10063528;28;20422;-67
2023/09/20 11:15:06;;;;;;;22.90;10.55;;;;;;;;;;10066274;28;20036;-70
2023/09/20 11:19:58;;;;;;;20.27;9.43;;;;;;;;;;10064817;28;20491;-70
2023/09/20 11:24:51;;;;;;;16.23;7.60;;;;;;;;;;10063118;28;20099;-69
2023/09/20 11:29:43;;;;;;;23.30;9.82;;;;;;;;;;10071446;28;20064;-70
2023/09/20 11:34:51;;;;;;;12.35;6.22;;;;;;;;;;10065367;28;20129;-70
2023/09/20 11:39:51;;;;;;;13.48;5.88;;;;;;;;;;10068747;28;20049;-69
2023/09/20 11:44:42;;;;;;;13.48;8.63;;;;;;;;;;10053516;28;20128;-69
2023/09/20 11:49:34;;;;;;;21.10;7.57;;;;;;;;;;10071509;28;20383;-69
2023/09/20 11:54:32;;;;;;;21.83;7.32;;;;;;;;;;10071810;28;20535;-68
2023/09/20 11:59:27;;;;;;;14.52;7.50;;;;;;;;;;10073188;28;20051;-70
2023/09/20 12:04:20;;;;;;;23.63;8.02;;;;;;;;;;10070478;28;20049;-69
2023/09/20 12:09:13;;;;;;;20.70;9.73;;;;;;;;;;10071449;28;20357;-70
2023/09/20 12:14:05;;;;;;;18.42;9.98;;;;;;;;;;10070934;28;20091;-70
2023/09/20 12:18:58;;;;;;;39.28;13.23;;;;;;;;;;10070148;28;20045;-69
2023/09/20 12:23:51;;;;;;;15.00;8.18;;;;;;;;;;10070940;28;20041;-70
2023/09/20 12:28:44;;;;;;;21.38;10.18;;;;;;;;;;10076687;28;20379;-70
2023/09/20 12:33:37;;;;;;;25.35;11.10;;;;;;;;;;10070281;28;20046;-70
2023/09/20 12:38:29;;;;;;;25.83;12.63;;;;;;;;;;10068517;28;20041;-69
2023/09/20 12:43:22;;;;;;;22.58;10.27;;;;;;;;;;10068734;28;20081;-70
2023/09/20 12:48:14;;;;;;;22.58;10.25;;;;;;;;;;10068911;28;20045;-70
2023/09/20 12:53:09;;;;;;;18.27;8.30;;;;;;;;;;10068847;28;20184;-70
2023/09/20 12:58:01;;;;;;;14.65;7.00;;;;;;;;;;10068254;28;20045;-70
2023/09/20 13:02:55;;;;;;;14.65;7.93;;;;;;;;;;10069441;28;20049;-70
2023/09/20 13:07:47;;;;;;;12.77;6.20;;;;;;;;;;10067173;28;20343;-70
2023/09/20 13:12:40;;;;;;;12.38;6.10;;;;;;;;;;10070121;28;20038;-71
2023/09/20 13:17:33;;;;;;;11.25;6.07;;;;;;;;;;10068396;28;20080;-71
2023/09/20 13:22:25;;;;;;;13.55;5.25;;;;;;;;;;10068372;28;20095;-70
2023/09/20 13:27:19;;;;;;;8.68;4.47;;;;;;;;;;10072699;28;20049;-69
2023/09/20 13:32:11;;;;;;;16.70;4.15;;;;;;;;;;10066237;28;20045;-72
2023/09/20 13:37:02;;;;;;;16.60;4.60;;;;;;;;;;10066845;28;20060;-72
2023/09/20 13:41:54;;;;;;;10.60;5.28;;;;;;;;;;10066841;28;20049;-72
2023/09/20 13:46:47;;;;;;;16.67;4.07;;;;;;;;;;10069726;28;20044;-73
2023/09/20 13:51:39;;;;;;;11.05;4.40;;;;;;;;;;10066471;28;20103;-73
2023/09/20 13:56:33;;;;;;;8.02;2.97;;;;;;;;;;10067093;28;20045;-72
2023/09/20 14:01:25;;;;;;;8.52;3.47;;;;;;;;;;10066574;28;20045;-71
2023/09/20 14:06:17;;;;;;;6.13;4.40;;;;;;;;;;10077639;28;20128;-70
2023/09/20 14:11:12;;;;;;;8.05;3.22;;;;;;;;;;10066821;28;21865;-72
2023/09/20 14:16:04;;;;;;;6.57;2.92;;;;;;;;;;10066861;28;20107;-72
2023/09/20 14:20:56;;;;;;;5.95;2.67;;;;;;;;;;10066193;28;20085;-72
2023/09/20 14:25:48;;;;;;;9.00;3.47;;;;;;;;;;10065385;28;20042;-71
2023/09/20 14:30:39;;;;;;;8.57;4.35;;;;;;;;;;10065668;28;20155;-71
2023/09/20 14:35:31;;;;;;;10.00;2.88;;;;;;;;;;10066751;28;20087;-71
2023/09/20 14:40:23;;;;;;;5.32;3.33;;;;;;;;;;10064339;28;20126;-71
2023/09/20 14:45:24;;;;;;;10.88;3.92;;;;;;;;;;10065035;28;20041;-72
2023/09/20 14:50:17;;;;;;;10.70;3.92;;;;;;;;;;10049916;28;20048;-70
2023/09/20 14:55:10;;;;;;;5.07;3.40;;;;;;;;;;10064672;28;20095;-71
2023/09/20 15:00:05;;;;;;;14.38;8.70;;;;;;;;;;10066181;28;20045;-70
2023/09/20 15:05:00;;;;;;;14.30;5.22;;;;;;;;;;10064513;28;20041;-71
2023/09/20 15:09:51;;;;;;;10.05;4.65;;;;;;;;;;10064654;28;20037;-70
2023/09/20 15:14:43;;;;;;;6.93;3.75;;;;;;;;;;10068971;28;20493;-70
2023/09/20 15:19:35;;;;;;;6.22;4.13;;;;;;;;;;10069781;28;20061;-71
2023/09/20 15:24:27;;;;;;;5.65;3.30;;;;;;;;;;10071999;28;21357;-71
2023/09/20 15:29:19;;;;;;;4.88;3.60;;;;;;;;;;10070529;28;20045;-69
2023/09/20 15:34:12;;;;;;;6.45;3.60;;;;;;;;;;10071293;28;20379;-70
2023/09/20 15:39:04;;;;;;;9.23;3.70;;;;;;;;;;10070929;28;20133;-71
2023/09/20 15:43:57;;;;;;;4.78;2.88;;;;;;;;;;10071137;28;20514;-64
2023/09/20 15:48:50;;;;;;;5.05;3.17;;;;;;;;;;10070551;28;20033;-61
2023/09/20 15:53:42;;;;;;;6.85;3.70;;;;;;;;;;10071023;28;20046;-65
2023/09/20 15:58:35;;;;;;;4.20;2.50;;;;;;;;;;10071215;28;20111;-66
2023/09/20 16:03:30;;;;;;;3.28;2.47;;;;;;;;;;10073631;28;20137;-62
2023/09/20 16:08:26;;;;;;;9.75;3.45;;;;;;;;;;10071018;28;20501;-63
2023/09/20 16:13:58;;;;;;;5.43;2.95;;;;;;;;;;10067971;23;20060;-83
2023/09/20 16:19:52;;;;;;;5.35;3.42;;;;;;;;;;10122067;28;20496;-83
2023/09/20 16:26:00;;;;;;;7.35;3.25;;;;;;;;;;10115186;28;20722;-82
2023/09/20 16:32:32;;;;;;;5.60;3.13;;;;;;;;;;10112504;28;20041;-82
2023/09/20 16:38:46;;;;;;;5.70;3.20;;;;;;;;;;10108071;28;20133;-82
2023/09/20 16:44:49;;;;;;;6.60;3.72;;;;;;;;;;10116009;28;20365;-81
2023/09/20 16:51:03;;;;;;;6.47;3.92;;;;;;;;;;10116291;28;20045;-83
2023/09/20 16:57:15;;;;;;;6.10;3.88;;;;;;;;;;10111162;28;20044;-83
2023/09/20 17:02:51;;;;;;;9.48;4.63;;;;;;;;;;10111655;28;20061;-83
2023/09/20 17:07:47;;;;;;;10.15;4.72;;;;;;;;;;10124614;28;20508;-82
2023/09/20 17:12:42;;;;;;;9.27;4.95;;;;;;;;;;10116128;28;20072;-82
2023/09/20 17:17:37;;;;;;;13.35;5.75;;;;;;;;;;10112242;28;20091;-83
2023/09/20 17:22:31;;;;;;;5.88;3.70;;;;;;;;;;10111574;28;20415;-83
2023/09/20 17:27:26;;;;;;;5.95;3.42;;;;;;;;;;10096129;28;20423;-83
2023/09/20 17:32:23;;;;;;;4.20;3.80;;;;;;;;;;10117315;28;20049;-82
2023/09/20 17:37:18;;;;;;;8.68;4.07;;;;;;;;;;10122398;28;20395;-82
2023/09/20 17:42:17;;;;;;;8.63;4.68;;;;;;;;;;10118446;28;20049;-83
2023/09/20 17:47:12;;;;;;;9.35;4.55;;;;;;;;;;10110930;28;20128;-82
2023/09/20 17:52:08;;;;;;;6.00;4.63;;;;;;;;;;10097495;28;20102;-82
2023/09/20 17:57:02;;;;;;;10.55;4.97;;;;;;;;;;10111790;28;20381;-83
2023/09/20 18:02:00;;;;;;;8.23;5.03;;;;;;;;;;10105802;28;20280;-81
2023/09/20 18:07:10;;;;;;;5.68;3.13;;;;;;;;;;10123695;28;20143;-82
2023/09/20 18:12:05;;;;;;;10.07;4.40;;;;;;;;;;10112619;28;20156;-83
2023/09/20 18:16:59;;;;;;;8.93;3.42;;;;;;;;;;10113537;28;20438;-82
2023/09/20 18:21:54;;;;;;;8.10;3.53;;;;;;;;;;10110523;28;20048;-82
2023/09/20 18:26:48;;;;;;;7.82;4.03;;;;;;;;;;10108467;28;20535;-82
2023/09/20 18:31:43;;;;;;;5.05;2.75;;;;;;;;;;10112295;28;20491;-82
2023/09/20 18:36:37;;;;;;;10.05;3.08;;;;;;;;;;10123012;28;20044;-82
2023/09/20 18:41:30;;;;;;;4.80;3.25;;;;;;;;;;10145237;28;20053;-82
2023/09/20 18:46:26;;;;;;;5.40;3.10;;;;;;;;;;10145794;28;20151;-83
2023/09/20 18:51:19;;;;;;;6.47;2.90;;;;;;;;;;10145795;28;20623;-83
2023/09/20 18:56:13;;;;;;;20.02;5.75;;;;;;;;;;10145337;28;20075;-83
2023/09/20 19:01:35;;;;;;;5.18;2.65;;;;;;;;;;10145440;28;20499;-82
2023/09/20 19:06:29;;;;;;;3.47;2.55;;;;;;;;;;10143673;28;20055;-83
2023/09/20 19:11:25;;;;;;;4.78;3.13;;;;;;;;;;10139477;28;20056;-84
2023/09/20 19:16:20;;;;;;;3.65;2.50;;;;;;;;;;10126737;28;20075;-83
2023/09/20 19:21:15;;;;;;;6.22;3.20;;;;;;;;;;10135207;28;20132;-83
2023/09/20 19:26:10;;;;;;;3.78;2.60;;;;;;;;;;10133054;28;20139;-83
2023/09/20 19:31:09;;;;;;;10.13;4.18;;;;;;;;;;10133075;28;20056;-82
2023/09/20 19:36:03;;;;;;;;;;;;;;;;;;10116540;28;20037;-82
2023/09/20 19:40:58;;;;;;;4.47;2.20;;;;;;;;;;10139686;28;19921;-82
2023/09/20 19:45:52;;;;;;;4.65;2.38;;;;;;;;;;10131113;28;20492;-83
2023/09/20 19:50:46;;;;;;;3.60;1.90;;;;;;;;;;10137220;28;20082;-83
2023/09/20 19:55:43;;;;;;;2.53;1.83;;;;;;;;;;10137088;28;20037;-81
2023/09/20 20:00:40;;;;;;;3.05;2.00;;;;;;;;;;10147176;28;20040;-81
2023/09/20 20:05:40;;;;;;;6.05;2.58;;;;;;;;;;10153203;28;20045;-82
2023/09/20 20:10:39;;;;;;;3.47;2.15;;;;;;;;;;10152211;28;20044;-82
2023/09/20 20:15:33;;;;;;;3.63;2.30;;;;;;;;;;10151647;28;20060;-82
2023/09/20 20:20:30;;;;;;;3.42;2.10;;;;;;;;;;10150904;28;20291;-83
2023/09/20 20:25:27;;;;;;;5.35;2.13;;;;;;;;;;10151077;28;20052;-83
2023/09/20 20:30:21;;;;;;;3.15;1.85;;;;;;;;;;10150868;28;20052;-83
2023/09/20 20:35:16;;;;;;;2.60;1.90;;;;;;;;;;10150942;28;20044;-83
2023/09/20 20:40:15;;;;;;;11.60;2.38;;;;;;;;;;10149157;28;20056;-82
2023/09/20 20:45:14;;;;;;;3.55;2.58;;;;;;;;;;10136916;28;20131;-83
2023/09/20 20:50:12;;;;;;;5.07;2.03;;;;;;;;;;10149817;28;20102;-83
2023/09/20 20:55:14;;;;;;;4.45;2.03;;;;;;;;;;10149335;28;20037;-84
2023/09/20 21:00:12;;;;;;;3.88;1.60;;;;;;;;;;10148254;28;20484;-81
2023/09/20 21:05:08;;;;;;;2.83;2.15;;;;;;;;;;10136657;28;20670;-82
2023/09/20 21:10:02;;;;;;;6.40;2.25;;;;;;;;;;10146833;28;20052;-83
2023/09/20 21:14:57;;;;;;;7.30;3.40;;;;;;;;;;10147135;28;20086;-84
2023/09/20 21:19:52;;;;;;;7.30;3.85;;;;;;;;;;10148050;28;20499;-83
2023/09/20 21:24:55;;;;;;;3.40;2.40;;;;;;;;;;10147631;28;20499;-83
2023/09/20 21:30:10;;;;;;;3.35;1.83;;;;;;;;;;10120607;28;20083;-84
2023/09/20 21:35:05;;;;;;;9.07;2.13;;;;;;;;;;10118491;28;20052;-83
2023/09/20 21:39:59;;;;;;;7.47;2.00;;;;;;;;;;10128108;28;20068;-82
2023/09/20 21:44:54;;;;;;;6.32;2.72;;;;;;;;;;10109919;28;20094;-82
2023/09/20 21:49:48;;;;;;;7.35;2.80;;;;;;;;;;10107881;28;20041;-82
2023/09/20 21:54:43;;;;;;;4.55;2.33;;;;;;;;;;10106391;28;20081;-83
2023/09/20 21:59:38;;;;;;;3.15;2.25;;;;;;;;;;10108891;28;20527;-82
2023/09/20 22:04:32;;;;;;;9.57;2.90;;;;;;;;;;10131193;28;20083;-83
2023/09/20 22:09:26;;;;;;;6.95;3.50;;;;;;;;;;10108096;28;20057;-82
2023/09/20 22:14:22;;;;;;;6.88;2.40;;;;;;;;;;10106104;28;20459;-82
2023/09/20 22:19:16;;;;;;;3.92;2.25;;;;;;;;;;10128486;28;20044;-82
2023/09/20 22:24:13;;;;;;;5.93;2.85;;;;;;;;;;10118416;28;20049;-83
2023/09/20 22:29:08;;;;;;;11.10;3.10;;;;;;;;;;10143989;28;20041;-83
2023/09/20 22:34:02;;;;;;;7.63;3.20;;;;;;;;;;10144538;28;20111;-82
2023/09/20 22:38:55;;;;;;;4.65;2.65;;;;;;;;;;10143768;28;20171;-82
2023/09/20 22:43:51;;;;;;;5.32;2.83;;;;;;;;;;10131484;28;20078;-83
2023/09/20 22:48:46;;;;;;;11.32;2.60;;;;;;;;;;10140747;28;20053;-84
2023/09/20 22:53:43;;;;;;;10.02;2.70;;;;;;;;;;10109335;28;20044;-83
2023/09/20 22:58:38;;;;;;;5.93;2.22;;;;;;;;;;10107445;28;20496;-84
2023/09/20 23:03:31;;;;;;;6.30;2.58;;;;;;;;;;10116510;28;20056;-84
2023/09/20 23:08:28;;;;;;;5.55;2.78;;;;;;;;;;10108570;28;20587;-84
2023/09/20 23:13:25;;;;;;;6.35;3.30;;;;;;;;;;10093352;28;20049;-82
2023/09/20 23:18:21;;;;;;;7.95;2.70;;;;;;;;;;10108869;28;20053;-83
2023/09/20 23:23:17;;;;;;;10.02;3.28;;;;;;;;;;10118804;28;20083;-83
2023/09/20 23:28:14;;;;;;;9.18;3.60;;;;;;;;;;10097955;28;20052;-83
2023/09/20 23:33:13;;;;;;;6.78;3.47;;;;;;;;;;10142470;28;20057;-83
2023/09/20 23:38:12;;;;;;;7.50;2.75;;;;;;;;;;10151474;28;20132;-83
2023/09/20 23:43:06;;;;;;;9.02;3.03;;;;;;;;;;10151855;28;20454;-83
2023/09/20 23:48:03;;;;;;;8.70;3.38;;;;;;;;;;10152027;28;20087;-83
2023/09/20 23:52:57;;;;;;;8.23;2.80;;;;;;;;;;10148938;28;20060;-84
2023/09/20 23:57:50;;;;;;;5.55;2.78;;;;;;;;;;10118173;28;20135;-83
